createdAt,value
2023-03-27T00:00:05.804Z,4.84
2023-03-27T00:01:05.788Z,4.83
2023-03-27T00:02:05.813Z,4.83
2023-03-27T00:03:05.886Z,4.83
2023-03-27T00:04:05.854Z,4.82
2023-03-27T00:05:05.763Z,4.82
2023-03-27T00:06:05.755Z,4.81
2023-03-27T00:07:05.734Z,4.80
2023-03-27T00:08:05.728Z,4.80
2023-03-27T00:09:05.697Z,4.79
2023-03-27T00:10:05.686Z,4.78
2023-03-27T00:11:05.660Z,4.77
2023-03-27T00:12:05.707Z,4.76
2023-03-27T00:13:05.686Z,4.76
2023-03-27T00:14:05.654Z,4.75
2023-03-27T00:15:05.643Z,4.74
2023-03-27T00:16:05.614Z,4.74
2023-03-27T00:17:05.636Z,4.74
2023-03-27T00:18:05.597Z,4.74
2023-03-27T00:19:05.561Z,4.74
2023-03-27T00:20:05.538Z,4.74
2023-03-27T00:21:05.545Z,4.73
2023-03-27T00:22:05.551Z,4.73
2023-03-27T00:23:05.536Z,4.73
2023-03-27T00:24:05.532Z,4.73
2023-03-27T00:25:05.495Z,4.74
2023-03-27T00:26:05.491Z,4.74
2023-03-27T00:27:05.450Z,4.75
2023-03-27T00:28:05.440Z,4.75
2023-03-27T00:29:05.429Z,4.75
2023-03-27T00:30:05.437Z,4.75
2023-03-27T00:31:05.448Z,4.75
2023-03-27T00:32:05.393Z,4.75
2023-03-27T00:33:05.407Z,4.75
2023-03-27T00:34:05.369Z,4.76
2023-03-27T00:35:05.359Z,4.76
2023-03-27T00:36:05.389Z,4.77
2023-03-27T00:37:05.340Z,4.78
2023-03-27T00:38:05.326Z,4.78
2023-03-27T00:39:05.308Z,4.79
2023-03-27T00:40:05.308Z,4.79
2023-03-27T00:41:05.365Z,4.80
2023-03-27T00:42:05.286Z,4.81
2023-03-27T00:43:05.264Z,4.81
2023-03-27T00:44:05.256Z,4.82
2023-03-27T00:45:05.250Z,4.82
2023-03-27T00:46:05.243Z,4.82
2023-03-27T00:47:05.209Z,4.83
2023-03-27T00:48:05.291Z,4.83
2023-03-27T00:49:05.198Z,4.84
2023-03-27T00:50:05.208Z,4.84
2023-03-27T00:51:05.150Z,4.85
2023-03-27T00:52:05.184Z,4.85
2023-03-27T00:53:05.124Z,4.86
2023-03-27T00:54:05.109Z,4.87
2023-03-27T00:55:05.186Z,4.88
2023-03-27T00:56:05.079Z,4.88
2023-03-27T00:57:05.103Z,4.89
2023-03-27T00:58:05.127Z,4.89
2023-03-27T00:59:05.038Z,4.88
2023-03-27T01:00:05.208Z,4.88
2023-03-27T01:01:05.072Z,4.87
2023-03-27T01:02:05.014Z,4.87
2023-03-27T01:03:05.162Z,4.87
2023-03-27T01:04:05.008Z,4.87
2023-03-27T01:05:04.963Z,4.87
2023-03-27T01:06:04.964Z,4.87
2023-03-27T01:07:04.925Z,4.86
2023-03-27T01:08:04.948Z,4.85
2023-03-27T01:09:04.918Z,4.85
2023-03-27T01:10:04.935Z,4.84
2023-03-27T01:11:04.886Z,4.84
2023-03-27T01:12:04.864Z,4.83
2023-03-27T01:13:04.863Z,4.83
2023-03-27T01:14:04.844Z,4.83
2023-03-27T01:15:04.852Z,4.83
2023-03-27T01:16:04.833Z,4.83
2023-03-27T01:17:04.806Z,4.83
2023-03-27T01:18:04.884Z,4.83
2023-03-27T01:19:04.784Z,4.83
2023-03-27T01:20:04.787Z,4.83
2023-03-27T01:21:04.777Z,4.82
2023-03-27T01:22:04.738Z,4.81
2023-03-27T01:23:04.715Z,4.81
2023-03-27T01:24:04.706Z,4.81
2023-03-27T01:25:04.687Z,4.81
2023-03-27T01:26:04.695Z,4.80
2023-03-27T01:27:04.663Z,4.80
2023-03-27T01:28:04.691Z,4.79
2023-03-27T01:29:04.663Z,4.78
2023-03-27T01:30:04.641Z,4.77
2023-03-27T01:31:04.681Z,4.77
2023-03-27T01:32:04.622Z,4.76
2023-03-27T01:33:04.737Z,4.75
2023-03-27T01:34:04.569Z,4.74
2023-03-27T01:35:04.639Z,4.74
2023-03-27T01:36:04.703Z,4.73
2023-03-27T01:37:04.667Z,4.73
2023-03-27T01:38:04.533Z,4.71
2023-03-27T01:39:04.549Z,4.70
2023-03-27T01:40:04.511Z,4.69
2023-03-27T01:41:04.488Z,4.67
2023-03-27T01:42:04.503Z,4.66
2023-03-27T01:43:04.472Z,4.65
2023-03-27T01:44:04.460Z,4.65
2023-03-27T01:45:04.462Z,4.64
2023-03-27T01:46:04.448Z,4.63
2023-03-27T01:47:04.485Z,4.63
2023-03-27T01:48:04.455Z,4.63
2023-03-27T01:49:04.391Z,4.61
2023-03-27T01:50:04.373Z,4.58
2023-03-27T01:51:04.358Z,4.55
2023-03-27T01:52:04.336Z,4.52
2023-03-27T01:53:04.345Z,4.48
2023-03-27T01:54:04.302Z,4.46
2023-03-27T01:55:04.301Z,4.43
2023-03-27T01:56:04.277Z,4.41
2023-03-27T01:57:04.387Z,4.39
2023-03-27T01:58:04.255Z,4.38
2023-03-27T01:59:04.346Z,4.35
2023-03-27T02:00:18.265Z,4.32
2023-03-27T02:01:04.397Z,4.30
2023-03-27T02:02:04.225Z,4.27
2023-03-27T02:03:04.249Z,4.25
2023-03-27T02:04:04.180Z,4.23
2023-03-27T02:05:04.206Z,4.21
2023-03-27T02:06:04.154Z,4.19
2023-03-27T02:07:04.168Z,4.18
2023-03-27T02:08:04.138Z,4.16
2023-03-27T02:09:04.125Z,4.15
2023-03-27T02:10:04.128Z,4.14
2023-03-27T02:11:04.097Z,4.13
2023-03-27T02:12:04.116Z,4.13
2023-03-27T02:13:04.084Z,4.13
2023-03-27T02:14:04.064Z,4.14
2023-03-27T02:15:23.706Z,4.14
2023-03-27T02:16:04.070Z,4.15
2023-03-27T02:17:04.088Z,4.15
2023-03-27T02:18:04.003Z,4.15
2023-03-27T02:19:04.008Z,4.14
2023-03-27T02:20:03.982Z,4.13
2023-03-27T02:21:03.976Z,4.11
2023-03-27T02:22:03.963Z,4.10
2023-03-27T02:23:03.971Z,4.09
2023-03-27T02:24:03.951Z,4.09
2023-03-27T02:25:03.966Z,4.09
2023-03-27T02:26:03.915Z,4.08
2023-03-27T02:27:03.925Z,4.07
2023-03-27T02:28:03.908Z,4.06
2023-03-27T02:29:03.914Z,4.05
2023-03-27T02:30:03.876Z,4.04
2023-03-27T02:31:06.624Z,4.04
2023-03-27T02:32:03.991Z,4.05
2023-03-27T02:33:03.874Z,4.06
2023-03-27T02:34:03.823Z,4.07
2023-03-27T02:35:03.824Z,4.07
2023-03-27T02:36:03.842Z,4.07
2023-03-27T02:37:03.789Z,4.07
2023-03-27T02:38:03.756Z,4.08
2023-03-27T02:39:03.753Z,4.09
2023-03-27T02:40:03.731Z,4.09
2023-03-27T02:41:03.733Z,4.09
2023-03-27T02:42:03.705Z,4.08
2023-03-27T02:43:03.696Z,4.08
2023-03-27T02:44:03.707Z,4.07
2023-03-27T02:45:03.685Z,4.06
2023-03-27T02:46:03.716Z,4.05
2023-03-27T02:47:03.708Z,4.04
2023-03-27T02:48:03.666Z,4.04
2023-03-27T02:49:03.642Z,4.03
2023-03-27T02:50:03.673Z,4.03
2023-03-27T02:51:03.607Z,4.03
2023-03-27T02:52:03.603Z,4.03
2023-03-27T02:53:03.569Z,4.03
2023-03-27T02:54:03.587Z,4.02
2023-03-27T02:55:03.567Z,4.00
2023-03-27T02:56:03.537Z,3.98
2023-03-27T02:57:03.574Z,3.96
2023-03-27T02:58:03.533Z,3.95
2023-03-27T02:59:03.518Z,3.93
2023-03-27T03:00:03.507Z,3.93
2023-03-27T03:01:03.512Z,3.92
2023-03-27T03:02:03.501Z,3.92
2023-03-27T03:03:03.519Z,3.91
2023-03-27T03:04:03.448Z,3.90
2023-03-27T03:05:03.437Z,3.89
2023-03-27T03:06:03.427Z,3.89
2023-03-27T03:07:03.417Z,3.89
2023-03-27T03:08:03.414Z,3.88
2023-03-27T03:09:03.382Z,3.86
2023-03-27T03:10:03.364Z,3.84
2023-03-27T03:11:03.352Z,3.83
2023-03-27T03:12:03.331Z,3.83
2023-03-27T03:13:03.326Z,3.83
2023-03-27T03:14:03.295Z,3.83
2023-03-27T03:15:03.354Z,3.83
2023-03-27T03:16:03.291Z,3.82
2023-03-27T03:17:03.278Z,3.82
2023-03-27T03:18:03.280Z,3.82
2023-03-27T03:19:03.249Z,3.81
2023-03-27T03:20:03.233Z,3.79
2023-03-27T03:21:03.231Z,3.78
2023-03-27T03:22:03.927Z,3.77
2023-03-27T03:23:03.198Z,3.76
2023-03-27T03:24:03.182Z,3.76
2023-03-27T03:25:03.166Z,3.75
2023-03-27T03:26:03.189Z,3.74
2023-03-27T03:27:03.160Z,3.73
2023-03-27T03:28:03.117Z,3.72
2023-03-27T03:29:03.120Z,3.72
2023-03-27T03:30:03.111Z,3.72
2023-03-27T03:31:03.088Z,3.72
2023-03-27T03:32:03.088Z,3.71
2023-03-27T03:33:03.108Z,3.71
2023-03-27T03:34:03.035Z,3.71
2023-03-27T03:35:03.040Z,3.71
2023-03-27T03:36:03.109Z,3.70
2023-03-27T03:37:03.025Z,3.70
2023-03-27T03:38:02.987Z,3.70
2023-03-27T03:39:02.985Z,3.70
2023-03-27T03:40:02.974Z,3.71
2023-03-27T03:41:02.999Z,3.72
2023-03-27T03:42:02.959Z,3.73
2023-03-27T03:43:02.932Z,3.74
2023-03-27T03:44:02.914Z,3.75
2023-03-27T03:45:02.938Z,3.75
2023-03-27T03:46:02.906Z,3.73
2023-03-27T03:47:02.934Z,3.72
2023-03-27T03:48:02.880Z,3.70
2023-03-27T03:49:02.849Z,3.68
2023-03-27T03:50:02.877Z,3.67
2023-03-27T03:51:02.842Z,3.66
2023-03-27T03:52:03.454Z,3.65
2023-03-27T03:53:02.822Z,3.65
2023-03-27T03:54:02.795Z,3.65
2023-03-27T03:55:02.764Z,3.65
2023-03-27T03:56:02.790Z,3.66
2023-03-27T03:57:02.818Z,3.68
2023-03-27T03:58:02.732Z,3.69
2023-03-27T03:59:02.718Z,3.69
2023-03-27T04:00:02.719Z,3.68
2023-03-27T04:01:02.722Z,3.67
2023-03-27T04:02:02.778Z,3.65
2023-03-27T04:03:02.707Z,3.62
2023-03-27T04:04:02.651Z,3.60
2023-03-27T04:05:08.773Z,3.58
2023-03-27T04:06:02.650Z,3.56
2023-03-27T04:07:02.614Z,3.53
2023-03-27T04:08:02.663Z,3.50
2023-03-27T04:09:02.599Z,3.48
2023-03-27T04:10:02.582Z,3.48
2023-03-27T04:11:02.566Z,3.48
2023-03-27T04:12:02.549Z,3.49
2023-03-27T04:13:02.559Z,3.50
2023-03-27T04:14:02.535Z,3.52
2023-03-27T04:15:02.566Z,3.53
2023-03-27T04:16:02.544Z,3.54
2023-03-27T04:17:02.491Z,3.54
2023-03-27T04:18:02.542Z,3.54
2023-03-27T04:19:02.473Z,3.53
2023-03-27T04:20:02.486Z,3.53
2023-03-27T04:21:02.478Z,3.53
2023-03-27T04:22:02.432Z,3.54
2023-03-27T04:23:02.430Z,3.54
2023-03-27T04:24:02.810Z,3.55
2023-03-27T04:25:02.376Z,3.56
2023-03-27T04:26:02.405Z,3.57
2023-03-27T04:27:02.357Z,3.58
2023-03-27T04:28:02.387Z,3.59
2023-03-27T04:29:02.337Z,3.60
2023-03-27T04:30:02.421Z,3.61
2023-03-27T04:31:02.310Z,3.62
2023-03-27T04:32:02.323Z,3.63
2023-03-27T04:33:02.341Z,3.65
2023-03-27T04:34:02.278Z,3.67
2023-03-27T04:35:02.273Z,3.68
2023-03-27T04:36:06.894Z,3.68
2023-03-27T04:37:02.284Z,3.67
2023-03-27T04:38:02.217Z,3.67
2023-03-27T04:39:02.326Z,3.67
2023-03-27T04:40:02.195Z,3.67
2023-03-27T04:41:02.213Z,3.68
2023-03-27T04:42:02.171Z,3.69
2023-03-27T04:43:02.155Z,3.70
2023-03-27T04:44:02.162Z,3.71
2023-03-27T04:45:02.193Z,3.71
2023-03-27T04:46:02.116Z,3.72
2023-03-27T04:47:02.271Z,3.72
2023-03-27T04:48:02.136Z,3.72
2023-03-27T04:49:02.088Z,3.73
2023-03-27T04:50:02.066Z,3.73
2023-03-27T04:51:02.076Z,3.73
2023-03-27T04:52:02.075Z,3.73
2023-03-27T04:53:02.047Z,3.72
2023-03-27T04:54:02.025Z,3.71
2023-03-27T04:55:02.018Z,3.69
2023-03-27T04:56:01.980Z,3.66
2023-03-27T04:57:02.114Z,3.63
2023-03-27T04:58:01.969Z,3.59
2023-03-27T04:59:01.960Z,3.56
2023-03-27T05:00:01.962Z,3.53
2023-03-27T05:01:02.035Z,3.51
2023-03-27T05:02:01.988Z,3.49
2023-03-27T05:03:01.973Z,3.48
2023-03-27T05:04:01.919Z,3.47
2023-03-27T05:05:01.892Z,3.46
2023-03-27T05:06:01.863Z,3.46
2023-03-27T05:07:01.841Z,3.46
2023-03-27T05:08:01.839Z,3.46
2023-03-27T05:09:01.824Z,3.46
2023-03-27T05:10:01.830Z,3.45
2023-03-27T05:11:01.804Z,3.44
2023-03-27T05:12:01.795Z,3.44
2023-03-27T05:13:01.833Z,3.44
2023-03-27T05:14:01.794Z,3.43
2023-03-27T05:15:01.767Z,3.43
2023-03-27T05:16:01.769Z,3.42
2023-03-27T05:17:01.791Z,3.41
2023-03-27T05:18:01.775Z,3.41
2023-03-27T05:19:01.682Z,3.40
2023-03-27T05:20:01.674Z,3.39
2023-03-27T05:21:01.669Z,3.38
2023-03-27T05:22:01.650Z,3.38
2023-03-27T05:23:01.682Z,3.39
2023-03-27T05:24:01.634Z,3.40
2023-03-27T05:25:01.614Z,3.41
2023-03-27T05:26:01.600Z,3.42
2023-03-27T05:27:01.598Z,3.41
2023-03-27T05:28:01.609Z,3.41
2023-03-27T05:29:01.565Z,3.41
2023-03-27T05:30:01.600Z,3.40
2023-03-27T05:31:01.568Z,3.39
2023-03-27T05:32:01.673Z,3.37
2023-03-27T05:33:01.555Z,3.35
2023-03-27T05:34:01.559Z,3.33
2023-03-27T05:35:01.917Z,3.32
2023-03-27T05:36:01.569Z,3.32
2023-03-27T05:37:01.472Z,3.32
2023-03-27T05:38:01.465Z,3.32
2023-03-27T05:39:01.539Z,3.32
2023-03-27T05:40:01.420Z,3.32
2023-03-27T05:41:02.077Z,3.32
2023-03-27T05:42:01.417Z,3.31
2023-03-27T05:43:01.416Z,3.29
2023-03-27T05:44:01.392Z,3.27
2023-03-27T05:45:01.348Z,3.25
2023-03-27T05:46:01.386Z,3.23
2023-03-27T05:47:01.342Z,3.21
2023-03-27T05:48:01.345Z,3.19
2023-03-27T05:49:01.315Z,3.17
2023-03-27T05:50:01.285Z,3.16
2023-03-27T05:51:01.392Z,3.14
2023-03-27T05:53:20.286Z,4.22
2023-03-27T05:54:21.251Z,3.76
2023-03-27T05:55:21.272Z,3.45
2023-03-27T05:56:21.233Z,3.27
2023-03-27T05:57:21.350Z,3.16
2023-03-27T05:58:21.281Z,3.10
2023-03-27T05:59:21.156Z,3.08
2023-03-27T06:00:21.152Z,3.07
2023-03-27T06:01:21.112Z,3.07
2023-03-27T06:02:21.695Z,3.07
2023-03-27T06:03:21.193Z,3.06
2023-03-27T06:04:21.118Z,3.04
2023-03-27T06:05:21.060Z,3.01
2023-03-27T06:06:21.067Z,2.98
2023-03-27T06:07:21.034Z,2.97
2023-03-27T06:08:21.029Z,2.96
2023-03-27T06:09:21.049Z,2.95
2023-03-27T06:10:21.001Z,2.94
2023-03-27T06:11:21.002Z,2.94
2023-03-27T06:12:20.967Z,2.93
2023-03-27T06:13:20.969Z,2.91
2023-03-27T06:14:20.963Z,2.89
2023-03-27T06:15:20.978Z,2.88
2023-03-27T06:16:21.043Z,2.86
2023-03-27T06:17:20.937Z,2.84
2023-03-27T06:18:20.902Z,2.83
2023-03-27T06:19:20.894Z,2.83
2023-03-27T06:20:20.879Z,2.83
2023-03-27T06:21:20.922Z,2.82
2023-03-27T06:22:20.841Z,2.81
2023-03-27T06:23:20.835Z,2.80
2023-03-27T06:24:20.828Z,2.79
2023-03-27T06:25:20.846Z,2.79
2023-03-27T06:26:20.808Z,2.79
2023-03-27T06:27:20.789Z,2.81
2023-03-27T06:28:20.783Z,2.82
2023-03-27T06:29:20.771Z,2.82
2023-03-27T06:30:20.757Z,2.81
2023-03-27T06:31:20.744Z,2.79
2023-03-27T06:32:20.861Z,2.76
2023-03-27T06:33:20.705Z,2.74
2023-03-27T06:34:20.731Z,2.70
2023-03-27T06:35:20.731Z,2.66
2023-03-27T06:36:20.718Z,2.62
2023-03-27T06:37:20.667Z,2.58
2023-03-27T06:38:20.805Z,2.55
2023-03-27T06:39:20.676Z,2.52
2023-03-27T06:40:20.648Z,2.51
2023-03-27T06:41:20.646Z,2.51
2023-03-27T06:42:20.603Z,2.51
2023-03-27T06:43:20.596Z,2.53
2023-03-27T06:44:27.158Z,2.55
2023-03-27T06:45:20.582Z,2.57
2023-03-27T06:46:20.591Z,2.57
2023-03-27T06:47:20.598Z,2.56
2023-03-27T06:48:22.408Z,2.55
2023-03-27T06:49:20.509Z,2.54
2023-03-27T06:50:20.527Z,2.53
2023-03-27T06:51:20.485Z,2.53
2023-03-27T06:52:20.467Z,2.51
2023-03-27T06:54:20.455Z,2.45
2023-03-27T06:55:20.458Z,2.42
2023-03-27T06:56:20.408Z,2.39
2023-03-27T06:57:20.472Z,2.38
2023-03-27T06:58:20.741Z,2.37
2023-03-27T06:59:20.384Z,2.37
2023-03-27T07:00:20.384Z,2.38
2023-03-27T07:01:20.466Z,2.40
2023-03-27T07:02:20.335Z,2.42
2023-03-27T07:03:20.353Z,2.42
2023-03-27T07:04:20.336Z,2.41
2023-03-27T07:05:20.363Z,2.40
2023-03-27T07:06:20.289Z,2.41
2023-03-27T07:07:20.303Z,2.42
2023-03-27T07:08:24.735Z,2.43
2023-03-27T07:09:20.274Z,2.45
2023-03-27T07:10:20.282Z,2.45
2023-03-27T07:11:20.260Z,2.45
2023-03-27T07:12:20.215Z,2.45
2023-03-27T07:13:20.319Z,2.45
2023-03-27T07:14:20.194Z,2.44
2023-03-27T07:15:20.272Z,2.43
2023-03-27T07:16:20.249Z,2.43
2023-03-27T07:17:20.161Z,2.44
2023-03-27T07:18:20.200Z,2.43
2023-03-27T07:19:20.116Z,2.42
2023-03-27T07:20:20.143Z,2.40
2023-03-27T07:21:23.001Z,2.39
2023-03-27T07:22:20.116Z,2.39
2023-03-27T07:23:20.087Z,2.39
2023-03-27T07:24:20.057Z,2.40
2023-03-27T07:25:20.050Z,2.40
2023-03-27T07:26:20.088Z,2.39
2023-03-27T07:27:20.036Z,2.36
2023-03-27T07:28:20.016Z,2.33
2023-03-27T07:29:20.075Z,2.30
2023-03-27T07:30:19.999Z,2.29
2023-03-27T07:31:35.182Z,2.28
2023-03-27T07:32:34.108Z,2.28
2023-03-27T07:33:20.100Z,2.27
2023-03-27T07:34:19.961Z,2.26
2023-03-27T07:35:19.996Z,2.24
2023-03-27T07:36:19.932Z,2.22
2023-03-27T07:37:19.911Z,2.21
2023-03-27T07:38:19.928Z,2.20
2023-03-27T07:39:19.902Z,2.19
2023-03-27T07:40:23.806Z,2.20
2023-03-27T07:41:19.872Z,2.21
2023-03-27T07:42:19.846Z,2.22
2023-03-27T07:43:19.882Z,2.23
2023-03-27T07:44:19.809Z,2.24
2023-03-27T07:45:19.813Z,2.23
2023-03-27T07:46:19.844Z,2.22
2023-03-27T07:47:19.794Z,2.20
2023-03-27T07:48:19.768Z,2.18
2023-03-27T07:49:19.751Z,2.16
2023-03-27T07:50:19.745Z,2.15
2023-03-27T07:51:19.745Z,2.14
2023-03-27T07:52:19.737Z,2.14
2023-03-27T07:53:34.411Z,2.15
2023-03-27T07:54:19.683Z,2.16
2023-03-27T07:55:20.417Z,2.16
2023-03-27T07:56:19.673Z,2.16
2023-03-27T07:57:19.757Z,2.15
2023-03-27T07:58:19.824Z,2.12
2023-03-27T07:59:19.614Z,2.09
2023-03-27T08:00:19.690Z,2.08
2023-03-27T08:01:19.660Z,2.07
2023-03-27T08:02:19.607Z,2.07
2023-03-27T08:03:19.682Z,2.08
2023-03-27T08:04:19.700Z,2.09
2023-03-27T08:05:19.607Z,2.10
2023-03-27T08:06:19.535Z,2.12
2023-03-27T08:07:19.551Z,2.13
2023-03-27T08:08:19.505Z,2.14
2023-03-27T08:09:19.507Z,2.16
2023-03-27T08:10:19.470Z,2.17
2023-03-27T08:11:27.807Z,2.17
2023-03-27T08:12:19.464Z,2.16
2023-03-27T08:13:19.442Z,2.15
2023-03-27T08:14:19.465Z,2.14
2023-03-27T08:15:19.426Z,2.13
2023-03-27T08:16:19.437Z,2.11
2023-03-27T08:17:21.892Z,2.10
2023-03-27T08:18:19.474Z,2.10
2023-03-27T08:19:19.375Z,2.10
2023-03-27T08:20:19.365Z,2.10
2023-03-27T08:21:19.360Z,2.12
2023-03-27T08:22:19.340Z,2.13
2023-03-27T08:23:19.338Z,2.16
2023-03-27T08:24:19.373Z,2.17
2023-03-27T08:25:19.294Z,2.19
2023-03-27T08:26:19.281Z,2.21
2023-03-27T08:27:19.295Z,2.22
2023-03-27T08:28:19.247Z,2.23
2023-03-27T08:29:19.257Z,2.23
2023-03-27T08:30:19.239Z,2.24
2023-03-27T08:31:19.228Z,2.24
2023-03-27T08:32:19.207Z,2.24
2023-03-27T08:33:19.191Z,2.25
2023-03-27T08:34:19.210Z,2.27
2023-03-27T08:35:19.233Z,2.28
2023-03-27T08:36:19.154Z,2.29
2023-03-27T08:37:19.140Z,2.31
2023-03-27T08:38:26.063Z,2.33
2023-03-27T08:39:19.121Z,2.35
2023-03-27T08:40:19.438Z,2.37
2023-03-27T08:41:19.092Z,2.40
2023-03-27T08:42:19.487Z,2.43
2023-03-27T08:43:19.097Z,2.45
2023-03-27T08:44:19.039Z,2.47
2023-03-27T08:45:19.063Z,2.49
2023-03-27T08:46:19.062Z,2.50
2023-03-27T08:47:19.026Z,2.52
2023-03-27T08:48:21.208Z,2.53
2023-03-27T08:49:19.005Z,2.51
2023-03-27T08:50:18.986Z,2.48
2023-03-27T08:51:18.962Z,2.46
2023-03-27T08:52:18.966Z,2.45
2023-03-27T08:53:18.979Z,2.43
2023-03-27T08:54:18.928Z,2.43
2023-03-27T08:55:18.989Z,2.43
2023-03-27T08:56:18.906Z,2.42
2023-03-27T08:57:18.942Z,2.42
2023-03-27T08:58:18.892Z,2.41
2023-03-27T08:59:18.873Z,2.41
2023-03-27T09:00:18.881Z,2.40
2023-03-27T09:01:18.878Z,2.37
2023-03-27T09:02:18.908Z,2.34
2023-03-27T09:03:18.956Z,2.30
2023-03-27T09:04:18.858Z,2.26
2023-03-27T09:05:18.815Z,2.23
2023-03-27T09:06:19.061Z,2.20
2023-03-27T09:07:19.142Z,2.19
2023-03-27T09:08:19.902Z,2.17
2023-03-27T09:09:23.679Z,2.17
2023-03-27T09:10:20.607Z,2.18
2023-03-27T09:11:23.680Z,2.18
2023-03-27T09:12:19.060Z,2.19
2023-03-27T09:13:18.907Z,2.20
2023-03-27T09:14:19.092Z,2.22
2023-03-27T09:15:18.731Z,2.24
2023-03-27T09:16:18.930Z,2.27
2023-03-27T09:17:18.752Z,2.29
2023-03-27T09:18:20.488Z,2.30
2023-03-27T09:19:20.540Z,2.29
2023-03-27T09:20:21.413Z,2.28
2023-03-27T09:21:19.172Z,2.25
2023-03-27T09:22:20.228Z,2.24
2023-03-27T09:23:21.289Z,2.23
2023-03-27T09:24:22.125Z,2.22
2023-03-27T09:25:21.333Z,2.21
2023-03-27T09:26:19.098Z,2.21
2023-03-27T09:27:34.594Z,2.20
2023-03-27T09:28:26.455Z,2.20
2023-03-27T09:29:20.595Z,2.21
2023-03-27T09:30:18.756Z,2.22
2023-03-27T09:31:20.888Z,2.24
2023-03-27T09:32:19.811Z,2.25
2023-03-27T09:33:19.025Z,2.27
2023-03-27T09:34:19.313Z,2.29
2023-03-27T09:35:18.619Z,2.30
2023-03-27T09:36:18.471Z,2.32
2023-03-27T09:37:18.470Z,2.33
2023-03-27T09:38:24.295Z,2.35
2023-03-27T09:39:18.492Z,2.37
2023-03-27T09:40:18.364Z,2.39
2023-03-27T09:41:18.425Z,2.40
2023-03-27T09:42:19.141Z,2.41
2023-03-27T09:43:18.378Z,2.42
2023-03-27T09:44:18.423Z,2.42
2023-03-27T09:45:18.297Z,2.42
2023-03-27T09:46:18.592Z,2.42
2023-03-27T09:47:18.262Z,2.42
2023-03-27T09:48:18.314Z,2.42
2023-03-27T09:49:18.314Z,2.42
2023-03-27T09:50:18.238Z,2.44
2023-03-27T09:51:18.225Z,2.45
2023-03-27T09:52:18.416Z,2.47
2023-03-27T09:53:18.251Z,2.49
2023-03-27T09:54:19.524Z,2.50
2023-03-27T09:55:18.186Z,2.52
2023-03-27T09:56:21.131Z,2.53
2023-03-27T09:57:22.095Z,2.53
2023-03-27T09:58:21.181Z,2.52
2023-03-27T09:59:35.351Z,2.52
2023-03-27T10:00:18.259Z,2.51
2023-03-27T10:01:21.163Z,2.50
2023-03-27T10:02:18.269Z,2.50
2023-03-27T10:03:21.391Z,2.50
2023-03-27T10:04:18.887Z,2.48
2023-03-27T10:05:18.718Z,2.48
2023-03-27T10:06:18.312Z,2.49
2023-03-27T10:07:19.075Z,2.51
2023-03-27T10:08:19.809Z,2.54
2023-03-27T10:09:19.139Z,2.57
2023-03-27T10:10:19.291Z,2.60
2023-03-27T10:11:18.694Z,2.62
2023-03-27T10:12:19.331Z,2.64
2023-03-27T10:13:18.665Z,2.66
2023-03-27T10:14:18.373Z,2.68
2023-03-27T10:15:18.408Z,2.69
2023-03-27T10:16:23.405Z,2.71
2023-03-27T10:17:20.477Z,2.72
2023-03-27T10:18:17.894Z,2.75
2023-03-27T10:19:17.873Z,2.79
2023-03-27T10:20:21.042Z,2.81
2023-03-27T10:21:20.428Z,2.83
2023-03-27T10:22:21.769Z,2.84
2023-03-27T10:23:47.131Z,2.86
2023-03-27T10:24:18.036Z,2.86
2023-03-27T10:25:17.903Z,2.86
2023-03-27T10:26:17.806Z,2.86
2023-03-27T10:27:17.820Z,2.85
2023-03-27T10:28:17.875Z,2.85
2023-03-27T10:29:17.867Z,2.84
2023-03-27T10:30:17.733Z,2.83
2023-03-27T10:31:17.857Z,2.80
2023-03-27T10:32:17.836Z,2.78
2023-03-27T10:33:17.791Z,2.76
2023-03-27T10:34:17.882Z,2.74
2023-03-27T10:35:17.712Z,2.73
2023-03-27T10:36:17.710Z,2.73
2023-03-27T10:37:18.583Z,2.74
2023-03-27T10:38:18.551Z,2.75
2023-03-27T10:39:19.317Z,2.77
2023-03-27T10:40:17.670Z,2.78
2023-03-27T10:41:28.679Z,2.79
2023-03-27T10:42:17.641Z,2.78
2023-03-27T10:43:17.576Z,2.78
2023-03-27T10:44:18.264Z,2.77
2023-03-27T10:45:17.563Z,2.77
2023-03-27T10:46:17.611Z,2.78
2023-03-27T10:47:17.523Z,2.78
2023-03-27T10:48:17.484Z,2.78
2023-03-27T10:49:17.609Z,2.79
2023-03-27T10:50:17.477Z,2.80
2023-03-27T10:51:17.463Z,2.80
2023-03-27T10:52:17.447Z,2.82
2023-03-27T10:53:17.551Z,2.84
2023-03-27T10:54:17.437Z,2.86
2023-03-27T10:55:17.421Z,2.88
2023-03-27T10:56:17.424Z,2.89
2023-03-27T10:57:17.451Z,2.90
2023-03-27T10:58:17.387Z,2.90
2023-03-27T10:59:17.488Z,2.91
2023-03-27T11:02:28.671Z,4.05
2023-03-27T11:53:29.160Z,4.15
2023-03-27T12:06:13.353Z,4.66
2023-03-27T12:08:40.128Z,4.60
2023-03-27T12:09:41.042Z,4.15
2023-03-27T12:10:41.018Z,3.84
2023-03-27T12:11:41.721Z,3.65
2023-03-27T12:12:41.027Z,3.54
2023-03-27T12:13:42.662Z,3.46
2023-03-27T12:14:41.416Z,3.39
2023-03-27T12:15:40.965Z,3.34
2023-03-27T12:16:41.013Z,3.31
2023-03-27T12:17:40.968Z,3.29
2023-03-27T12:18:45.267Z,3.28
2023-03-27T12:19:41.120Z,3.28
2023-03-27T12:20:52.000Z,3.30
2023-03-27T12:21:40.926Z,3.31
2023-03-27T12:22:40.878Z,3.32
2023-03-27T12:23:40.863Z,3.33
2023-03-27T12:24:53.441Z,3.35
2023-03-27T12:25:40.826Z,3.37
2023-03-27T12:26:40.816Z,3.40
2023-03-27T12:27:40.811Z,3.43
2023-03-27T12:28:41.271Z,3.46
2023-03-27T12:29:40.788Z,3.49
2023-03-27T12:30:40.772Z,3.51
2023-03-27T12:31:40.770Z,3.53
2023-03-27T12:32:40.790Z,3.54
2023-03-27T12:33:40.740Z,3.55
2023-03-27T12:34:40.722Z,3.54
2023-03-27T12:35:40.784Z,3.53
2023-03-27T12:36:40.682Z,3.50
2023-03-27T12:37:40.673Z,3.46
2023-03-27T12:38:40.689Z,3.42
2023-03-27T12:39:40.670Z,3.37
2023-03-27T12:40:40.673Z,3.33
2023-03-27T12:41:40.651Z,3.30
2023-03-27T12:42:43.853Z,3.28
2023-03-27T12:43:40.619Z,3.26
2023-03-27T12:44:40.598Z,3.25
2023-03-27T12:45:51.105Z,3.25
2023-03-27T12:46:40.704Z,3.25
2023-03-27T12:47:40.601Z,3.25
2023-03-27T12:48:40.560Z,3.25
2023-03-27T12:49:47.009Z,3.26
2023-03-27T12:50:40.504Z,3.26
2023-03-27T12:51:40.528Z,3.26
2023-03-27T12:52:40.499Z,3.26
2023-03-27T12:53:40.554Z,3.26
2023-03-27T12:54:40.485Z,3.26
2023-03-27T12:55:40.480Z,3.26
2023-03-27T12:56:40.489Z,3.25
2023-03-27T12:57:40.629Z,3.24
2023-03-27T12:58:40.450Z,3.24
2023-03-27T12:59:40.417Z,3.23
2023-03-27T13:00:40.439Z,3.22
2023-03-27T13:01:51.158Z,3.21
2023-03-27T13:02:40.425Z,3.20
2023-03-27T13:03:40.506Z,3.18
2023-03-27T13:04:40.354Z,3.15
2023-03-27T13:05:40.396Z,3.12
2023-03-27T13:06:40.326Z,3.10
2023-03-27T13:07:40.333Z,3.08
2023-03-27T13:08:40.288Z,3.06
2023-03-27T13:09:47.330Z,3.03
2023-03-27T13:10:46.807Z,3.01
2023-03-27T13:11:40.247Z,3.00
2023-03-27T13:12:40.258Z,3.00
2023-03-27T13:13:40.229Z,2.99
2023-03-27T13:14:40.296Z,2.97
2023-03-27T13:15:40.282Z,2.96
2023-03-27T13:16:40.195Z,2.96
2023-03-27T13:17:40.236Z,2.97
2023-03-27T13:18:40.252Z,2.98
2023-03-27T13:19:40.281Z,2.99
2023-03-27T13:20:40.209Z,3.01
2023-03-27T13:21:40.129Z,3.03
2023-03-27T13:22:40.122Z,3.05
2023-03-27T13:23:40.110Z,3.07
2023-03-27T13:24:40.090Z,3.09
2023-03-27T13:25:40.149Z,3.10
2023-03-27T13:26:40.730Z,3.11
2023-03-27T13:27:40.165Z,3.12
2023-03-27T13:28:40.571Z,3.12
2023-03-27T13:29:41.003Z,3.12
2023-03-27T13:30:40.036Z,3.13
2023-03-27T13:31:40.119Z,3.16
2023-03-27T13:32:40.283Z,3.18
2023-03-27T13:33:40.509Z,3.21
2023-03-27T13:34:40.802Z,3.24
2023-03-27T13:35:40.269Z,3.26
2023-03-27T13:36:39.970Z,3.28
2023-03-27T13:37:39.952Z,3.30
2023-03-27T13:38:39.908Z,3.34
2023-03-27T13:39:39.917Z,3.39
2023-03-27T13:40:39.916Z,3.46
2023-03-27T13:41:39.960Z,3.53
2023-03-27T13:42:41.432Z,3.60
2023-03-27T13:43:39.870Z,3.64
2023-03-27T13:44:40.171Z,3.66
2023-03-27T13:45:39.893Z,3.69
2023-03-27T13:46:40.104Z,3.70
2023-03-27T13:47:39.829Z,3.71
2023-03-27T13:48:39.832Z,3.71
2023-03-27T13:49:39.827Z,3.72
2023-03-27T13:50:39.773Z,3.74
2023-03-27T13:51:39.760Z,3.76
2023-03-27T13:52:39.728Z,3.79
2023-03-27T13:53:39.728Z,3.83
2023-03-27T13:54:39.697Z,3.88
2023-03-27T13:55:39.693Z,3.96
2023-03-27T13:56:39.749Z,4.05
2023-03-27T13:57:39.777Z,4.15
2023-03-27T13:58:39.650Z,4.25
2023-03-27T13:59:39.670Z,4.32
2023-03-27T14:00:39.629Z,4.37
2023-03-27T14:01:39.720Z,4.39
2023-03-27T14:02:39.700Z,4.40
2023-03-27T14:03:40.792Z,4.38
2023-03-27T14:04:39.587Z,4.36
2023-03-27T14:05:39.572Z,4.34
2023-03-27T14:06:39.568Z,4.31
2023-03-27T14:09:54.800Z,5.35
2023-03-27T14:10:54.006Z,4.90
2023-03-27T14:13:33.001Z,5.58
2023-03-27T14:15:54.797Z,5.90
2023-03-27T14:17:05.599Z,5.47
2023-03-27T14:18:03.860Z,5.20
2023-03-27T14:18:55.760Z,5.04
2023-03-27T14:19:55.687Z,4.92
2023-03-27T14:20:55.732Z,4.81
2023-03-27T14:21:55.661Z,4.68
2023-03-27T14:22:55.672Z,4.55
2023-03-27T14:23:55.640Z,4.44
2023-03-27T14:24:55.644Z,4.35
2023-03-27T14:25:55.869Z,4.29
2023-03-27T14:26:55.658Z,4.24
2023-03-27T14:27:55.675Z,4.20
2023-03-27T14:28:55.595Z,4.17
2023-03-27T14:29:55.591Z,4.13
2023-03-27T14:30:55.712Z,4.11